sensor_id;sensor_type;location;lat;lon;timestamp;P1;durP1;ratioP1;P2;durP2;ratioP2
39214;SDS011;24932;51.746;14.334;2023-04-07T00:00:40;32.13;;;12.33;;
39214;SDS011;24932;51.746;14.334;2023-04-07T00:04:40;29.3;;;12.73;;
39214;SDS011;24932;51.746;14.334;2023-04-07T00:08:41;34.97;;;14.6;;
39214;SDS011;24932;51.746;14.334;2023-04-07T00:12:40;37.3;;;14.73;;
39214;SDS011;24932;51.746;14.334;2023-04-07T00:16:41;30.8;;;15.43;;
39214;SDS011;24932;51.746;14.334;2023-04-07T00:20:40;24.9;;;13.33;;
39214;SDS011;24932;51.746;14.334;2023-04-07T00:24:40;25.13;;;12.63;;
39214;SDS011;24932;51.746;14.334;2023-04-07T00:28:40;32.27;;;14.23;;
39214;SDS011;24932;51.746;14.334;2023-04-07T00:32:41;25.53;;;12.4;;
39214;SDS011;24932;51.746;14.334;2023-04-07T00:36:40;23.63;;;12.53;;
39214;SDS011;24932;51.746;14.334;2023-04-07T00:40:40;24.37;;;13.1;;
39214;SDS011;24932;51.746;14.334;2023-04-07T00:44:41;29.27;;;14.27;;
39214;SDS011;24932;51.746;14.334;2023-04-07T00:48:40;26.53;;;13.87;;
39214;SDS011;24932;51.746;14.334;2023-04-07T00:52:40;25.97;;;13.5;;
39214;SDS011;24932;51.746;14.334;2023-04-07T00:56:43;30.37;;;13.53;;
39214;SDS011;24932;51.746;14.334;2023-04-07T01:00:41;28.67;;;14.2;;
39214;SDS011;24932;51.746;14.334;2023-04-07T01:04:42;35.0;;;13.13;;
39214;SDS011;24932;51.746;14.334;2023-04-07T01:08:41;27.47;;;12.93;;
39214;SDS011;24932;51.746;14.334;2023-04-07T01:12:43;26.47;;;13.5;;
39214;SDS011;24932;51.746;14.334;2023-04-07T01:16:41;24.73;;;12.93;;
39214;SDS011;24932;51.746;14.334;2023-04-07T01:20:41;24.1;;;11.73;;
39214;SDS011;24932;51.746;14.334;2023-04-07T01:24:45;28.9;;;13.2;;
39214;SDS011;24932;51.746;14.334;2023-04-07T01:28:43;24.27;;;11.87;;
39214;SDS011;24932;51.746;14.334;2023-04-07T01:32:40;25.07;;;12.27;;
39214;SDS011;24932;51.746;14.334;2023-04-07T01:36:41;23.97;;;12.57;;
39214;SDS011;24932;51.746;14.334;2023-04-07T01:40:40;21.93;;;12.37;;
39214;SDS011;24932;51.746;14.334;2023-04-07T01:44:40;24.67;;;12.33;;
39214;SDS011;24932;51.746;14.334;2023-04-07T01:48:40;23.13;;;12.67;;
39214;SDS011;24932;51.746;14.334;2023-04-07T01:52:40;22.57;;;10.43;;
39214;SDS011;24932;51.746;14.334;2023-04-07T01:56:40;20.83;;;11.97;;
39214;SDS011;24932;51.746;14.334;2023-04-07T02:00:40;21.0;;;11.37;;
39214;SDS011;24932;51.746;14.334;2023-04-07T02:04:44;22.0;;;11.23;;
39214;SDS011;24932;51.746;14.334;2023-04-07T02:08:41;23.1;;;12.6;;
39214;SDS011;24932;51.746;14.334;2023-04-07T02:12:39;24.03;;;11.5;;
39214;SDS011;24932;51.746;14.334;2023-04-07T02:16:40;20.73;;;11.87;;
39214;SDS011;24932;51.746;14.334;2023-04-07T02:20:41;27.3;;;12.83;;
39214;SDS011;24932;51.746;14.334;2023-04-07T02:24:40;23.03;;;10.93;;
39214;SDS011;24932;51.746;14.334;2023-04-07T02:28:40;21.17;;;12.4;;
39214;SDS011;24932;51.746;14.334;2023-04-07T02:32:40;21.23;;;11.57;;
39214;SDS011;24932;51.746;14.334;2023-04-07T02:36:40;26.57;;;11.73;;
39214;SDS011;24932;51.746;14.334;2023-04-07T02:40:40;20.77;;;12.27;;
39214;SDS011;24932;51.746;14.334;2023-04-07T02:44:40;22.97;;;13.3;;
39214;SDS011;24932;51.746;14.334;2023-04-07T02:48:40;27.2;;;14.33;;
39214;SDS011;24932;51.746;14.334;2023-04-07T02:52:40;27.93;;;15.47;;
39214;SDS011;24932;51.746;14.334;2023-04-07T02:56:40;29.97;;;15.3;;
39214;SDS011;24932;51.746;14.334;2023-04-07T03:00:40;33.87;;;17.33;;
39214;SDS011;24932;51.746;14.334;2023-04-07T03:04:40;31.8;;;17.7;;
39214;SDS011;24932;51.746;14.334;2023-04-07T03:08:40;36.5;;;16.2;;
39214;SDS011;24932;51.746;14.334;2023-04-07T03:12:41;27.57;;;17.23;;
39214;SDS011;24932;51.746;14.334;2023-04-07T03:16:40;32.63;;;17.2;;
39214;SDS011;24932;51.746;14.334;2023-04-07T03:20:42;29.6;;;15.77;;
39214;SDS011;24932;51.746;14.334;2023-04-07T03:24:40;28.23;;;16.2;;
39214;SDS011;24932;51.746;14.334;2023-04-07T03:28:40;32.9;;;17.37;;
39214;SDS011;24932;51.746;14.334;2023-04-07T03:32:41;37.2;;;19.1;;
39214;SDS011;24932;51.746;14.334;2023-04-07T03:36:40;30.33;;;17.43;;
39214;SDS011;24932;51.746;14.334;2023-04-07T03:40:40;34.67;;;18.43;;
39214;SDS011;24932;51.746;14.334;2023-04-07T03:44:40;28.53;;;17.37;;
39214;SDS011;24932;51.746;14.334;2023-04-07T03:48:40;28.07;;;16.57;;
39214;SDS011;24932;51.746;14.334;2023-04-07T03:52:40;27.7;;;16.13;;
39214;SDS011;24932;51.746;14.334;2023-04-07T03:56:40;29.13;;;17.67;;
39214;SDS011;24932;51.746;14.334;2023-04-07T04:00:41;34.1;;;18.53;;
39214;SDS011;24932;51.746;14.334;2023-04-07T04:04:40;30.03;;;16.8;;
39214;SDS011;24932;51.746;14.334;2023-04-07T04:08:40;30.27;;;17.2;;
39214;SDS011;24932;51.746;14.334;2023-04-07T04:12:40;25.43;;;15.03;;
39214;SDS011;24932;51.746;14.334;2023-04-07T04:16:40;27.63;;;14.8;;
39214;SDS011;24932;51.746;14.334;2023-04-07T04:20:41;29.7;;;17.23;;
39214;SDS011;24932;51.746;14.334;2023-04-07T04:24:41;24.63;;;15.77;;
39214;SDS011;24932;51.746;14.334;2023-04-07T04:28:41;45.47;;;17.77;;
39214;SDS011;24932;51.746;14.334;2023-04-07T04:32:41;34.5;;;18.3;;
39214;SDS011;24932;51.746;14.334;2023-04-07T04:36:39;34.33;;;18.07;;
39214;SDS011;24932;51.746;14.334;2023-04-07T04:40:40;30.3;;;17.8;;
39214;SDS011;24932;51.746;14.334;2023-04-07T04:44:40;30.6;;;18.03;;
39214;SDS011;24932;51.746;14.334;2023-04-07T04:48:40;32.1;;;17.37;;
39214;SDS011;24932;51.746;14.334;2023-04-07T04:52:40;32.9;;;18.87;;
39214;SDS011;24932;51.746;14.334;2023-04-07T04:56:40;32.0;;;17.03;;
39214;SDS011;24932;51.746;14.334;2023-04-07T05:00:41;30.9;;;16.77;;
39214;SDS011;24932;51.746;14.334;2023-04-07T05:04:40;29.17;;;17.07;;
39214;SDS011;24932;51.746;14.334;2023-04-07T05:08:40;25.83;;;16.57;;
39214;SDS011;24932;51.746;14.334;2023-04-07T05:12:40;27.4;;;15.7;;
39214;SDS011;24932;51.746;14.334;2023-04-07T05:16:40;29.6;;;17.2;;
39214;SDS011;24932;51.746;14.334;2023-04-07T05:20:40;28.03;;;16.87;;
39214;SDS011;24932;51.746;14.334;2023-04-07T05:24:40;24.23;;;14.47;;
39214;SDS011;24932;51.746;14.334;2023-04-07T05:28:40;31.6;;;16.2;;
39214;SDS011;24932;51.746;14.334;2023-04-07T05:32:41;28.5;;;15.13;;
39214;SDS011;24932;51.746;14.334;2023-04-07T05:36:40;25.83;;;14.3;;
39214;SDS011;24932;51.746;14.334;2023-04-07T05:40:40;28.57;;;16.6;;
39214;SDS011;24932;51.746;14.334;2023-04-07T05:44:40;25.23;;;13.93;;
39214;SDS011;24932;51.746;14.334;2023-04-07T05:48:40;21.17;;;12.9;;
39214;SDS011;24932;51.746;14.334;2023-04-07T05:52:40;24.27;;;13.43;;
39214;SDS011;24932;51.746;14.334;2023-04-07T05:56:40;22.6;;;13.0;;
39214;SDS011;24932;51.746;14.334;2023-04-07T06:00:41;19.93;;;11.6;;
39214;SDS011;24932;51.746;14.334;2023-04-07T06:04:41;21.47;;;13.7;;
39214;SDS011;24932;51.746;14.334;2023-04-07T06:08:40;24.43;;;12.17;;
39214;SDS011;24932;51.746;14.334;2023-04-07T06:12:40;24.87;;;12.97;;
39214;SDS011;24932;51.746;14.334;2023-04-07T06:16:41;20.4;;;11.2;;
39214;SDS011;24932;51.746;14.334;2023-04-07T06:20:40;27.67;;;12.63;;
39214;SDS011;24932;51.746;14.334;2023-04-07T06:24:40;25.73;;;11.73;;
39214;SDS011;24932;51.746;14.334;2023-04-07T06:28:40;22.0;;;11.02;;
39214;SDS011;24932;51.746;14.334;2023-04-07T06:32:40;26.3;;;12.1;;
39214;SDS011;24932;51.746;14.334;2023-04-07T06:36:40;27.5;;;12.7;;
39214;SDS011;24932;51.746;14.334;2023-04-07T06:40:40;31.67;;;13.3;;
39214;SDS011;24932;51.746;14.334;2023-04-07T06:44:40;24.9;;;13.0;;
39214;SDS011;24932;51.746;14.334;2023-04-07T06:48:40;22.42;;;11.88;;
39214;SDS011;24932;51.746;14.334;2023-04-07T06:52:40;24.75;;;12.13;;
39214;SDS011;24932;51.746;14.334;2023-04-07T06:56:40;22.15;;;13.15;;
39214;SDS011;24932;51.746;14.334;2023-04-07T07:00:40;24.7;;;12.32;;
39214;SDS011;24932;51.746;14.334;2023-04-07T07:04:41;22.23;;;12.85;;
39214;SDS011;24932;51.746;14.334;2023-04-07T07:08:40;20.23;;;12.23;;
39214;SDS011;24932;51.746;14.334;2023-04-07T07:12:40;19.62;;;11.77;;
39214;SDS011;24932;51.746;14.334;2023-04-07T07:16:41;19.83;;;12.77;;
39214;SDS011;24932;51.746;14.334;2023-04-07T07:20:41;23.8;;;12.98;;
39214;SDS011;24932;51.746;14.334;2023-04-07T07:24:40;23.1;;;13.25;;
39214;SDS011;24932;51.746;14.334;2023-04-07T07:28:41;19.8;;;10.82;;
39214;SDS011;24932;51.746;14.334;2023-04-07T07:32:40;22.48;;;11.27;;
39214;SDS011;24932;51.746;14.334;2023-04-07T07:36:40;18.75;;;11.2;;
39214;SDS011;24932;51.746;14.334;2023-04-07T07:40:39;20.05;;;10.8;;
39214;SDS011;24932;51.746;14.334;2023-04-07T07:44:40;24.3;;;10.98;;
39214;SDS011;24932;51.746;14.334;2023-04-07T07:48:40;18.0;;;10.77;;
39214;SDS011;24932;51.746;14.334;2023-04-07T07:52:40;19.92;;;11.75;;
39214;SDS011;24932;51.746;14.334;2023-04-07T07:56:40;28.55;;;11.95;;
39214;SDS011;24932;51.746;14.334;2023-04-07T08:00:40;17.1;;;9.77;;
39214;SDS011;24932;51.746;14.334;2023-04-07T08:04:41;17.87;;;11.05;;
39214;SDS011;24932;51.746;14.334;2023-04-07T08:08:40;20.05;;;11.88;;
39214;SDS011;24932;51.746;14.334;2023-04-07T08:12:40;21.17;;;10.18;;
39214;SDS011;24932;51.746;14.334;2023-04-07T08:16:40;19.17;;;10.63;;
39214;SDS011;24932;51.746;14.334;2023-04-07T08:20:39;19.6;;;11.15;;
39214;SDS011;24932;51.746;14.334;2023-04-07T08:24:40;18.98;;;9.88;;
39214;SDS011;24932;51.746;14.334;2023-04-07T08:28:41;26.85;;;10.88;;
39214;SDS011;24932;51.746;14.334;2023-04-07T08:32:40;21.48;;;10.93;;
39214;SDS011;24932;51.746;14.334;2023-04-07T08:36:44;12.8;;;8.43;;
39214;SDS011;24932;51.746;14.334;2023-04-07T08:40:40;16.2;;;9.0;;
39214;SDS011;24932;51.746;14.334;2023-04-07T08:44:39;14.4;;;8.1;;
39214;SDS011;24932;51.746;14.334;2023-04-07T08:48:41;14.23;;;8.77;;
39214;SDS011;24932;51.746;14.334;2023-04-07T08:52:41;19.0;;;9.43;;
39214;SDS011;24932;51.746;14.334;2023-04-07T08:56:41;19.23;;;9.65;;
39214;SDS011;24932;51.746;14.334;2023-04-07T09:00:41;17.58;;;8.98;;
39214;SDS011;24932;51.746;14.334;2023-04-07T09:04:39;14.45;;;8.48;;
39214;SDS011;24932;51.746;14.334;2023-04-07T09:08:40;12.95;;;8.98;;
39214;SDS011;24932;51.746;14.334;2023-04-07T09:12:40;20.25;;;11.23;;
39214;SDS011;24932;51.746;14.334;2023-04-07T09:16:41;15.48;;;9.15;;
39214;SDS011;24932;51.746;14.334;2023-04-07T09:21:12;74.37;;;26.2;;
39214;SDS011;24932;51.746;14.334;2023-04-07T09:24:40;33.17;;;17.37;;
39214;SDS011;24932;51.746;14.334;2023-04-07T09:28:41;18.92;;;10.43;;
39214;SDS011;24932;51.746;14.334;2023-04-07T09:32:40;18.25;;;7.57;;
39214;SDS011;24932;51.746;14.334;2023-04-07T09:36:41;14.48;;;7.32;;
39214;SDS011;24932;51.746;14.334;2023-04-07T09:40:39;13.4;;;7.62;;
39214;SDS011;24932;51.746;14.334;2023-04-07T09:44:41;13.2;;;8.2;;
39214;SDS011;24932;51.746;14.334;2023-04-07T09:48:40;13.82;;;7.9;;
39214;SDS011;24932;51.746;14.334;2023-04-07T09:52:48;13.13;;;8.18;;
39214;SDS011;24932;51.746;14.334;2023-04-07T09:56:40;14.07;;;7.87;;
39214;SDS011;24932;51.746;14.334;2023-04-07T10:00:41;12.02;;;7.65;;
39214;SDS011;24932;51.746;14.334;2023-04-07T10:04:40;13.02;;;7.6;;
39214;SDS011;24932;51.746;14.334;2023-04-07T10:08:41;17.37;;;7.07;;
39214;SDS011;24932;51.746;14.334;2023-04-07T10:12:40;12.18;;;7.15;;
39214;SDS011;24932;51.746;14.334;2023-04-07T10:16:41;16.65;;;9.23;;
39214;SDS011;24932;51.746;14.334;2023-04-07T10:20:40;20.83;;;9.88;;
39214;SDS011;24932;51.746;14.334;2023-04-07T10:24:43;15.65;;;7.95;;
39214;SDS011;24932;51.746;14.334;2023-04-07T10:28:39;13.52;;;7.53;;
39214;SDS011;24932;51.746;14.334;2023-04-07T10:32:44;16.77;;;7.7;;
39214;SDS011;24932;51.746;14.334;2023-04-07T10:37:06;14.9;;;8.6;;
39214;SDS011;24932;51.746;14.334;2023-04-07T10:40:41;14.3;;;8.23;;
39214;SDS011;24932;51.746;14.334;2023-04-07T10:44:44;18.08;;;9.55;;
39214;SDS011;24932;51.746;14.334;2023-04-07T10:48:39;16.37;;;9.5;;
39214;SDS011;24932;51.746;14.334;2023-04-07T10:52:40;14.38;;;8.45;;
39214;SDS011;24932;51.746;14.334;2023-04-07T10:57:13;15.02;;;8.5;;
39214;SDS011;24932;51.746;14.334;2023-04-07T11:00:40;22.08;;;9.23;;
39214;SDS011;24932;51.746;14.334;2023-04-07T11:04:43;14.02;;;8.48;;
39214;SDS011;24932;51.746;14.334;2023-04-07T11:08:41;22.48;;;9.77;;
39214;SDS011;24932;51.746;14.334;2023-04-07T11:12:40;18.25;;;8.27;;
39214;SDS011;24932;51.746;14.334;2023-04-07T11:16:40;17.48;;;8.88;;
39214;SDS011;24932;51.746;14.334;2023-04-07T11:20:41;17.92;;;9.2;;
39214;SDS011;24932;51.746;14.334;2023-04-07T11:24:40;19.12;;;9.68;;
39214;SDS011;24932;51.746;14.334;2023-04-07T11:28:43;16.27;;;9.18;;
39214;SDS011;24932;51.746;14.334;2023-04-07T11:32:40;15.52;;;8.13;;
39214;SDS011;24932;51.746;14.334;2023-04-07T11:36:40;22.55;;;10.1;;
39214;SDS011;24932;51.746;14.334;2023-04-07T11:40:39;14.85;;;8.55;;
39214;SDS011;24932;51.746;14.334;2023-04-07T11:44:43;18.95;;;9.13;;
39214;SDS011;24932;51.746;14.334;2023-04-07T11:48:40;17.42;;;8.32;;
39214;SDS011;24932;51.746;14.334;2023-04-07T11:52:40;17.73;;;8.57;;
39214;SDS011;24932;51.746;14.334;2023-04-07T11:56:41;16.2;;;9.32;;
39214;SDS011;24932;51.746;14.334;2023-04-07T12:00:51;18.2;;;8.77;;
39214;SDS011;24932;51.746;14.334;2023-04-07T12:04:54;16.95;;;8.75;;
39214;SDS011;24932;51.746;14.334;2023-04-07T12:08:41;14.02;;;8.65;;
39214;SDS011;24932;51.746;14.334;2023-04-07T12:12:40;21.65;;;9.55;;
39214;SDS011;24932;51.746;14.334;2023-04-07T12:16:40;15.6;;;9.43;;
39214;SDS011;24932;51.746;14.334;2023-04-07T12:20:41;20.15;;;9.68;;
39214;SDS011;24932;51.746;14.334;2023-04-07T12:24:40;23.35;;;10.93;;
39214;SDS011;24932;51.746;14.334;2023-04-07T12:28:39;17.02;;;9.82;;
39214;SDS011;24932;51.746;14.334;2023-04-07T12:32:40;18.23;;;9.82;;
39214;SDS011;24932;51.746;14.334;2023-04-07T12:36:40;22.08;;;8.93;;
39214;SDS011;24932;51.746;14.334;2023-04-07T12:40:41;17.0;;;9.32;;
39214;SDS011;24932;51.746;14.334;2023-04-07T12:44:40;16.95;;;8.23;;
39214;SDS011;24932;51.746;14.334;2023-04-07T12:48:41;19.73;;;7.93;;
39214;SDS011;24932;51.746;14.334;2023-04-07T12:52:40;13.65;;;5.78;;
39214;SDS011;24932;51.746;14.334;2023-04-07T12:56:40;12.1;;;5.57;;
39214;SDS011;24932;51.746;14.334;2023-04-07T13:00:40;12.55;;;5.37;;
39214;SDS011;24932;51.746;14.334;2023-04-07T13:04:41;12.65;;;5.5;;
39214;SDS011;24932;51.746;14.334;2023-04-07T13:08:41;9.27;;;4.6;;
39214;SDS011;24932;51.746;14.334;2023-04-07T13:12:40;6.32;;;3.78;;
39214;SDS011;24932;51.746;14.334;2023-04-07T13:16:40;6.18;;;4.12;;
39214;SDS011;24932;51.746;14.334;2023-04-07T13:20:41;9.32;;;4.45;;
39214;SDS011;24932;51.746;14.334;2023-04-07T13:24:41;10.45;;;4.68;;
39214;SDS011;24932;51.746;14.334;2023-04-07T13:28:40;7.9;;;4.32;;
39214;SDS011;24932;51.746;14.334;2023-04-07T13:32:40;12.82;;;5.35;;
39214;SDS011;24932;51.746;14.334;2023-04-07T13:36:40;12.18;;;4.95;;
39214;SDS011;24932;51.746;14.334;2023-04-07T13:40:41;7.12;;;3.37;;
39214;SDS011;24932;51.746;14.334;2023-04-07T13:44:40;5.72;;;3.3;;
39214;SDS011;24932;51.746;14.334;2023-04-07T13:48:40;6.72;;;3.62;;
39214;SDS011;24932;51.746;14.334;2023-04-07T13:52:40;6.9;;;3.37;;
39214;SDS011;24932;51.746;14.334;2023-04-07T13:56:40;12.77;;;5.32;;
39214;SDS011;24932;51.746;14.334;2023-04-07T14:00:40;5.8;;;3.8;;
39214;SDS011;24932;51.746;14.334;2023-04-07T14:04:41;7.43;;;3.45;;
39214;SDS011;24932;51.746;14.334;2023-04-07T14:08:40;9.48;;;4.95;;
39214;SDS011;24932;51.746;14.334;2023-04-07T14:12:40;7.65;;;4.6;;
39214;SDS011;24932;51.746;14.334;2023-04-07T14:16:40;8.98;;;4.03;;
39214;SDS011;24932;51.746;14.334;2023-04-07T14:20:40;7.53;;;4.5;;
39214;SDS011;24932;51.746;14.334;2023-04-07T14:24:40;9.4;;;4.75;;
39214;SDS011;24932;51.746;14.334;2023-04-07T14:28:40;8.43;;;4.9;;
39214;SDS011;24932;51.746;14.334;2023-04-07T14:32:40;8.13;;;5.15;;
39214;SDS011;24932;51.746;14.334;2023-04-07T14:36:42;11.2;;;5.45;;
39214;SDS011;24932;51.746;14.334;2023-04-07T14:40:40;9.43;;;4.93;;
39214;SDS011;24932;51.746;14.334;2023-04-07T14:44:41;14.27;;;5.65;;
39214;SDS011;24932;51.746;14.334;2023-04-07T14:48:40;9.05;;;4.93;;
39214;SDS011;24932;51.746;14.334;2023-04-07T14:52:40;7.6;;;4.62;;
39214;SDS011;24932;51.746;14.334;2023-04-07T14:56:40;11.12;;;5.57;;
39214;SDS011;24932;51.746;14.334;2023-04-07T15:00:41;10.55;;;5.68;;
39214;SDS011;24932;51.746;14.334;2023-04-07T15:04:41;12.13;;;6.0;;
39214;SDS011;24932;51.746;14.334;2023-04-07T15:08:40;10.6;;;6.93;;
39214;SDS011;24932;51.746;14.334;2023-04-07T15:12:39;9.15;;;5.43;;
39214;SDS011;24932;51.746;14.334;2023-04-07T15:16:40;7.93;;;5.22;;
39214;SDS011;24932;51.746;14.334;2023-04-07T15:20:40;9.77;;;4.97;;
39214;SDS011;24932;51.746;14.334;2023-04-07T15:24:39;13.7;;;5.9;;
39214;SDS011;24932;51.746;14.334;2023-04-07T15:28:40;8.23;;;5.2;;
39214;SDS011;24932;51.746;14.334;2023-04-07T15:32:40;13.18;;;6.03;;
39214;SDS011;24932;51.746;14.334;2023-04-07T15:36:40;12.35;;;5.35;;
39214;SDS011;24932;51.746;14.334;2023-04-07T15:40:40;10.77;;;5.32;;
39214;SDS011;24932;51.746;14.334;2023-04-07T15:44:40;9.68;;;5.87;;
39214;SDS011;24932;51.746;14.334;2023-04-07T15:48:40;11.07;;;5.97;;
39214;SDS011;24932;51.746;14.334;2023-04-07T15:52:40;9.77;;;5.85;;
39214;SDS011;24932;51.746;14.334;2023-04-07T15:56:40;10.77;;;5.6;;
39214;SDS011;24932;51.746;14.334;2023-04-07T16:00:40;8.57;;;5.25;;
39214;SDS011;24932;51.746;14.334;2023-04-07T16:04:40;11.9;;;6.53;;
39214;SDS011;24932;51.746;14.334;2023-04-07T16:08:40;10.87;;;5.57;;
39214;SDS011;24932;51.746;14.334;2023-04-07T16:12:40;14.13;;;6.5;;
39214;SDS011;24932;51.746;14.334;2023-04-07T16:16:40;11.15;;;6.1;;
39214;SDS011;24932;51.746;14.334;2023-04-07T16:20:40;10.87;;;5.4;;
39214;SDS011;24932;51.746;14.334;2023-04-07T16:24:40;13.5;;;6.8;;
39214;SDS011;24932;51.746;14.334;2023-04-07T16:28:40;12.7;;;7.2;;
39214;SDS011;24932;51.746;14.334;2023-04-07T16:32:41;13.85;;;7.05;;
39214;SDS011;24932;51.746;14.334;2023-04-07T16:36:40;8.97;;;5.67;;
39214;SDS011;24932;51.746;14.334;2023-04-07T16:40:43;8.33;;;5.6;;
39214;SDS011;24932;51.746;14.334;2023-04-07T16:44:40;11.8;;;7.13;;
39214;SDS011;24932;51.746;14.334;2023-04-07T16:48:40;11.67;;;5.93;;
39214;SDS011;24932;51.746;14.334;2023-04-07T16:52:40;12.57;;;6.4;;
39214;SDS011;24932;51.746;14.334;2023-04-07T16:56:40;10.4;;;6.7;;
39214;SDS011;24932;51.746;14.334;2023-04-07T17:00:40;10.5;;;5.97;;
39214;SDS011;24932;51.746;14.334;2023-04-07T17:04:41;11.6;;;6.77;;
39214;SDS011;24932;51.746;14.334;2023-04-07T17:08:41;11.7;;;6.3;;
39214;SDS011;24932;51.746;14.334;2023-04-07T17:12:40;10.53;;;6.8;;
39214;SDS011;24932;51.746;14.334;2023-04-07T17:16:40;11.2;;;6.93;;
39214;SDS011;24932;51.746;14.334;2023-04-07T17:20:40;10.47;;;6.13;;
39214;SDS011;24932;51.746;14.334;2023-04-07T17:24:40;13.33;;;6.97;;
39214;SDS011;24932;51.746;14.334;2023-04-07T17:28:40;12.77;;;7.53;;
39214;SDS011;24932;51.746;14.334;2023-04-07T17:32:39;13.0;;;8.1;;
39214;SDS011;24932;51.746;14.334;2023-04-07T17:36:40;14.07;;;7.97;;
39214;SDS011;24932;51.746;14.334;2023-04-07T17:40:40;12.73;;;8.47;;
39214;SDS011;24932;51.746;14.334;2023-04-07T17:44:40;14.7;;;9.17;;
39214;SDS011;24932;51.746;14.334;2023-04-07T17:48:41;17.23;;;10.0;;
39214;SDS011;24932;51.746;14.334;2023-04-07T17:52:40;14.6;;;9.3;;
39214;SDS011;24932;51.746;14.334;2023-04-07T17:56:40;16.83;;;10.0;;
39214;SDS011;24932;51.746;14.334;2023-04-07T18:00:41;15.2;;;10.03;;
39214;SDS011;24932;51.746;14.334;2023-04-07T18:04:41;12.93;;;9.6;;
39214;SDS011;24932;51.746;14.334;2023-04-07T18:08:41;17.27;;;10.97;;
39214;SDS011;24932;51.746;14.334;2023-04-07T18:12:40;18.9;;;11.8;;
39214;SDS011;24932;51.746;14.334;2023-04-07T18:16:40;20.97;;;11.7;;
39214;SDS011;24932;51.746;14.334;2023-04-07T18:20:40;18.73;;;11.5;;
39214;SDS011;24932;51.746;14.334;2023-04-07T18:24:40;20.4;;;11.13;;
39214;SDS011;24932;51.746;14.334;2023-04-07T18:28:40;20.37;;;11.83;;
39214;SDS011;24932;51.746;14.334;2023-04-07T18:32:40;21.3;;;13.2;;
39214;SDS011;24932;51.746;14.334;2023-04-07T18:36:41;22.2;;;13.4;;
39214;SDS011;24932;51.746;14.334;2023-04-07T18:40:40;26.9;;;13.23;;
39214;SDS011;24932;51.746;14.334;2023-04-07T18:44:40;19.1;;;12.3;;
39214;SDS011;24932;51.746;14.334;2023-04-07T18:48:40;21.9;;;13.63;;
39214;SDS011;24932;51.746;14.334;2023-04-07T18:52:39;20.9;;;11.8;;
39214;SDS011;24932;51.746;14.334;2023-04-07T18:56:39;20.4;;;10.83;;
39214;SDS011;24932;51.746;14.334;2023-04-07T19:00:40;21.83;;;12.27;;
39214;SDS011;24932;51.746;14.334;2023-04-07T19:04:41;18.07;;;11.3;;
39214;SDS011;24932;51.746;14.334;2023-04-07T19:08:40;20.9;;;11.63;;
39214;SDS011;24932;51.746;14.334;2023-04-07T19:12:40;19.07;;;12.3;;
39214;SDS011;24932;51.746;14.334;2023-04-07T19:16:40;22.97;;;12.7;;
39214;SDS011;24932;51.746;14.334;2023-04-07T19:20:40;19.33;;;12.17;;
39214;SDS011;24932;51.746;14.334;2023-04-07T19:24:40;19.77;;;12.6;;
39214;SDS011;24932;51.746;14.334;2023-04-07T19:28:40;24.6;;;14.07;;
39214;SDS011;24932;51.746;14.334;2023-04-07T19:32:40;28.73;;;15.93;;
39214;SDS011;24932;51.746;14.334;2023-04-07T19:36:40;27.03;;;15.77;;
39214;SDS011;24932;51.746;14.334;2023-04-07T19:40:40;24.53;;;14.53;;
39214;SDS011;24932;51.746;14.334;2023-04-07T19:44:40;24.87;;;13.8;;
39214;SDS011;24932;51.746;14.334;2023-04-07T19:48:40;26.93;;;13.77;;
39214;SDS011;24932;51.746;14.334;2023-04-07T19:52:40;19.53;;;11.1;;
39214;SDS011;24932;51.746;14.334;2023-04-07T19:56:40;26.73;;;12.43;;
39214;SDS011;24932;51.746;14.334;2023-04-07T20:00:40;24.5;;;12.87;;
39214;SDS011;24932;51.746;14.334;2023-04-07T20:04:40;20.17;;;11.9;;
39214;SDS011;24932;51.746;14.334;2023-04-07T20:08:40;23.3;;;11.63;;
39214;SDS011;24932;51.746;14.334;2023-04-07T20:12:40;22.53;;;12.23;;
39214;SDS011;24932;51.746;14.334;2023-04-07T20:16:40;22.73;;;11.7;;
39214;SDS011;24932;51.746;14.334;2023-04-07T20:20:40;21.5;;;11.8;;
39214;SDS011;24932;51.746;14.334;2023-04-07T20:24:39;25.73;;;12.97;;
39214;SDS011;24932;51.746;14.334;2023-04-07T20:28:41;22.57;;;12.53;;
39214;SDS011;24932;51.746;14.334;2023-04-07T20:32:40;20.43;;;11.67;;
39214;SDS011;24932;51.746;14.334;2023-04-07T20:36:40;25.17;;;13.53;;
39214;SDS011;24932;51.746;14.334;2023-04-07T20:40:40;29.13;;;14.53;;
39214;SDS011;24932;51.746;14.334;2023-04-07T20:44:40;19.93;;;10.5;;
39214;SDS011;24932;51.746;14.334;2023-04-07T20:48:40;23.0;;;13.97;;
39214;SDS011;24932;51.746;14.334;2023-04-07T20:52:40;27.27;;;13.93;;
39214;SDS011;24932;51.746;14.334;2023-04-07T20:56:40;26.17;;;14.27;;
39214;SDS011;24932;51.746;14.334;2023-04-07T21:00:40;31.97;;;15.8;;
39214;SDS011;24932;51.746;14.334;2023-04-07T21:04:40;30.47;;;14.8;;
39214;SDS011;24932;51.746;14.334;2023-04-07T21:08:40;28.23;;;15.13;;
39214;SDS011;24932;51.746;14.334;2023-04-07T21:12:40;31.87;;;15.57;;
39214;SDS011;24932;51.746;14.334;2023-04-07T21:16:40;33.83;;;16.07;;
39214;SDS011;24932;51.746;14.334;2023-04-07T21:20:40;32.8;;;16.13;;
39214;SDS011;24932;51.746;14.334;2023-04-07T21:24:40;32.47;;;16.23;;
39214;SDS011;24932;51.746;14.334;2023-04-07T21:28:40;35.03;;;17.13;;
39214;SDS011;24932;51.746;14.334;2023-04-07T21:32:40;33.1;;;16.3;;
39214;SDS011;24932;51.746;14.334;2023-04-07T21:36:40;37.27;;;16.97;;
39214;SDS011;24932;51.746;14.334;2023-04-07T21:40:41;40.13;;;17.47;;
39214;SDS011;24932;51.746;14.334;2023-04-07T21:44:40;37.37;;;16.3;;
39214;SDS011;24932;51.746;14.334;2023-04-07T21:48:40;36.33;;;17.6;;
39214;SDS011;24932;51.746;14.334;2023-04-07T21:52:40;43.77;;;19.93;;
39214;SDS011;24932;51.746;14.334;2023-04-07T21:56:40;47.9;;;19.93;;
39214;SDS011;24932;51.746;14.334;2023-04-07T22:00:40;39.87;;;18.33;;
39214;SDS011;24932;51.746;14.334;2023-04-07T22:04:40;40.8;;;19.63;;
39214;SDS011;24932;51.746;14.334;2023-04-07T22:08:48;47.37;;;19.87;;
39214;SDS011;24932;51.746;14.334;2023-04-07T22:12:40;48.17;;;19.93;;
39214;SDS011;24932;51.746;14.334;2023-04-07T22:16:40;53.2;;;21.33;;
39214;SDS011;24932;51.746;14.334;2023-04-07T22:20:40;51.23;;;19.73;;
39214;SDS011;24932;51.746;14.334;2023-04-07T22:24:40;51.5;;;20.0;;
39214;SDS011;24932;51.746;14.334;2023-04-07T22:28:40;50.83;;;19.03;;
39214;SDS011;24932;51.746;14.334;2023-04-07T22:32:40;44.1;;;18.9;;
39214;SDS011;24932;51.746;14.334;2023-04-07T22:36:40;51.7;;;19.48;;
39214;SDS011;24932;51.746;14.334;2023-04-07T22:40:41;49.53;;;18.63;;
39214;SDS011;24932;51.746;14.334;2023-04-07T22:44:40;51.63;;;18.0;;
39214;SDS011;24932;51.746;14.334;2023-04-07T22:48:40;42.97;;;17.4;;
39214;SDS011;24932;51.746;14.334;2023-04-07T22:52:40;52.27;;;19.63;;
39214;SDS011;24932;51.746;14.334;2023-04-07T22:56:40;46.7;;;18.5;;
39214;SDS011;24932;51.746;14.334;2023-04-07T23:00:40;48.6;;;19.0;;
39214;SDS011;24932;51.746;14.334;2023-04-07T23:04:40;54.33;;;19.5;;
39214;SDS011;24932;51.746;14.334;2023-04-07T23:08:40;48.97;;;17.57;;
39214;SDS011;24932;51.746;14.334;2023-04-07T23:12:40;44.53;;;17.47;;
39214;SDS011;24932;51.746;14.334;2023-04-07T23:16:40;46.37;;;16.93;;
39214;SDS011;24932;51.746;14.334;2023-04-07T23:20:40;46.67;;;17.43;;
39214;SDS011;24932;51.746;14.334;2023-04-07T23:24:40;46.63;;;17.1;;